UAAH/BXH METAR and TAF weather

Enter ICAO airport designator
Station Type Date Time Source
UAAH METAR 2019/12/06 11:00 UTC NOAA

UAAH 061100Z 27007MPS 9999 FEW030 M02/M09 Q1031 NOSIG RMK QFE734/0979


Station Type Date Time Source
UAAH Decoded METAR 2019/12/06 11:00 UTC NOAA

Station name not available
Dec 06, 2019 - 06:00 AM EST / 2019.12.06 1100 UTC
Wind: from the W (270 degrees) at 16 MPH (14 KT):0
Visibility: greater than 7 mile(s):0
Sky conditions: mostly clear
Temperature: 28 F (-2 C)
Windchill: 15 F (-9 C):1
Dew Point: 15 F (-9 C)
Relative Humidity: 58%
Pressure (altimeter): 30.45 in. Hg (1031 hPa)
ob: UAAH 061100Z 27007MPS 9999 FEW030 M02/M09 Q1031 NOSIG RMK QFE734/0979
cycle: 11

Station Type Date Time Source
UAAH TAF 2016/09/21 12:09 UTC NOAA

TAF
AMD TAF
AMD UAAH 211506Z 2112/2124 36006MPS CAVOK

Example: see airport list